sensor_id;sensor_type;location;lat;lon;timestamp;P1;durP1;ratioP1;P2;durP2;ratioP2
18378;SDS011;27025;51.986;5.984;2023-05-10T00:01:52;26.07;;;19.87;;
18378;SDS011;27025;51.986;5.984;2023-05-10T00:04:18;25.37;;;19.87;;
18378;SDS011;27025;51.986;5.984;2023-05-10T00:06:44;26.63;;;21.33;;
18378;SDS011;27025;51.986;5.984;2023-05-10T00:09:10;26.30;;;21.30;;
18378;SDS011;27025;51.986;5.984;2023-05-10T00:11:36;30.10;;;21.83;;
18378;SDS011;27025;51.986;5.984;2023-05-10T00:14:02;32.17;;;22.50;;
18378;SDS011;27025;51.986;5.984;2023-05-10T00:16:28;29.50;;;22.43;;
18378;SDS011;27025;51.986;5.984;2023-05-10T00:18:54;34.70;;;24.90;;
18378;SDS011;27025;51.986;5.984;2023-05-10T00:21:20;35.53;;;24.63;;
18378;SDS011;27025;51.986;5.984;2023-05-10T00:23:46;35.53;;;25.30;;
18378;SDS011;27025;51.986;5.984;2023-05-10T00:26:12;35.27;;;25.60;;
18378;SDS011;27025;51.986;5.984;2023-05-10T00:28:38;33.90;;;25.37;;
18378;SDS011;27025;51.986;5.984;2023-05-10T00:31:04;42.40;;;28.77;;
18378;SDS011;27025;51.986;5.984;2023-05-10T00:33:30;48.30;;;31.67;;
18378;SDS011;27025;51.986;5.984;2023-05-10T00:35:56;46.87;;;29.73;;
18378;SDS011;27025;51.986;5.984;2023-05-10T00:38:22;54.13;;;33.20;;
18378;SDS011;27025;51.986;5.984;2023-05-10T00:40:48;57.50;;;33.80;;
18378;SDS011;27025;51.986;5.984;2023-05-10T00:43:14;59.10;;;34.73;;
18378;SDS011;27025;51.986;5.984;2023-05-10T00:45:40;59.60;;;34.47;;
18378;SDS011;27025;51.986;5.984;2023-05-10T00:48:06;60.53;;;35.57;;
18378;SDS011;27025;51.986;5.984;2023-05-10T00:50:33;57.77;;;35.73;;
18378;SDS011;27025;51.986;5.984;2023-05-10T00:52:59;66.80;;;36.97;;
18378;SDS011;27025;51.986;5.984;2023-05-10T00:55:29;68.23;;;40.90;;
18378;SDS011;27025;51.986;5.984;2023-05-10T00:57:56;71.53;;;41.50;;
18378;SDS011;27025;51.986;5.984;2023-05-10T01:00:22;69.30;;;40.73;;
18378;SDS011;27025;51.986;5.984;2023-05-10T01:02:50;71.10;;;42.17;;
18378;SDS011;27025;51.986;5.984;2023-05-10T01:05:17;78.57;;;44.33;;
18378;SDS011;27025;51.986;5.984;2023-05-10T01:07:46;76.37;;;43.83;;
18378;SDS011;27025;51.986;5.984;2023-05-10T01:10:13;84.20;;;47.13;;
18378;SDS011;27025;51.986;5.984;2023-05-10T01:12:40;79.23;;;45.13;;
18378;SDS011;27025;51.986;5.984;2023-05-10T01:15:06;88.73;;;47.50;;
18378;SDS011;27025;51.986;5.984;2023-05-10T01:17:34;84.40;;;48.33;;
18378;SDS011;27025;51.986;5.984;2023-05-10T01:20:01;86.67;;;48.60;;
18378;SDS011;27025;51.986;5.984;2023-05-10T01:27:51;87.00;;;49.60;;
18378;SDS011;27025;51.986;5.984;2023-05-10T01:30:35;95.03;;;49.83;;
18378;SDS011;27025;51.986;5.984;2023-05-10T01:33:23;97.13;;;50.73;;
18378;SDS011;27025;51.986;5.984;2023-05-10T01:38:29;102.13;;;51.73;;
18378;SDS011;27025;51.986;5.984;2023-05-10T01:43:36;103.47;;;52.57;;
18378;SDS011;27025;51.986;5.984;2023-05-10T01:46:08;106.93;;;54.40;;
18378;SDS011;27025;51.986;5.984;2023-05-10T01:48:45;100.90;;;51.90;;
18378;SDS011;27025;51.986;5.984;2023-05-10T01:51:14;100.10;;;53.47;;
18378;SDS011;27025;51.986;5.984;2023-05-10T01:53:43;100.50;;;52.80;;
18378;SDS011;27025;51.986;5.984;2023-05-10T01:56:10;102.60;;;53.20;;
18378;SDS011;27025;51.986;5.984;2023-05-10T01:58:37;96.30;;;50.97;;
18378;SDS011;27025;51.986;5.984;2023-05-10T02:01:03;98.13;;;51.03;;
18378;SDS011;27025;51.986;5.984;2023-05-10T02:03:30;98.90;;;50.60;;
18378;SDS011;27025;51.986;5.984;2023-05-10T02:05:56;98.20;;;50.03;;
18378;SDS011;27025;51.986;5.984;2023-05-10T02:08:23;93.30;;;48.47;;
18378;SDS011;27025;51.986;5.984;2023-05-10T02:10:50;87.50;;;49.20;;
18378;SDS011;27025;51.986;5.984;2023-05-10T02:13:17;91.83;;;47.80;;
18378;SDS011;27025;51.986;5.984;2023-05-10T02:15:43;87.27;;;46.60;;
18378;SDS011;27025;51.986;5.984;2023-05-10T02:18:12;81.07;;;44.60;;
18378;SDS011;27025;51.986;5.984;2023-05-10T02:20:39;92.33;;;47.93;;
18378;SDS011;27025;51.986;5.984;2023-05-10T02:23:05;92.70;;;48.47;;
18378;SDS011;27025;51.986;5.984;2023-05-10T02:25:32;84.03;;;46.57;;
18378;SDS011;27025;51.986;5.984;2023-05-10T02:27:58;84.63;;;44.90;;
18378;SDS011;27025;51.986;5.984;2023-05-10T02:30:25;83.80;;;45.60;;
18378;SDS011;27025;51.986;5.984;2023-05-10T02:32:51;84.03;;;45.57;;
18378;SDS011;27025;51.986;5.984;2023-05-10T02:35:18;85.73;;;45.50;;
18378;SDS011;27025;51.986;5.984;2023-05-10T02:37:44;86.73;;;44.40;;
18378;SDS011;27025;51.986;5.984;2023-05-10T02:40:11;91.40;;;45.70;;
18378;SDS011;27025;51.986;5.984;2023-05-10T02:42:37;83.17;;;43.97;;
18378;SDS011;27025;51.986;5.984;2023-05-10T02:45:11;92.40;;;45.17;;
18378;SDS011;27025;51.986;5.984;2023-05-10T02:47:38;96.47;;;45.90;;
18378;SDS011;27025;51.986;5.984;2023-05-10T02:50:04;101.13;;;46.77;;
18378;SDS011;27025;51.986;5.984;2023-05-10T02:52:39;94.73;;;45.67;;
18378;SDS011;27025;51.986;5.984;2023-05-10T02:55:05;90.20;;;45.30;;
18378;SDS011;27025;51.986;5.984;2023-05-10T02:57:33;100.23;;;46.67;;
18378;SDS011;27025;51.986;5.984;2023-05-10T03:00:00;94.73;;;45.83;;
18378;SDS011;27025;51.986;5.984;2023-05-10T03:02:26;101.90;;;48.03;;
18378;SDS011;27025;51.986;5.984;2023-05-10T03:04:53;99.80;;;48.57;;
18378;SDS011;27025;51.986;5.984;2023-05-10T03:07:19;106.37;;;48.40;;
18378;SDS011;27025;51.986;5.984;2023-05-10T03:09:46;96.43;;;48.23;;
18378;SDS011;27025;51.986;5.984;2023-05-10T03:17:25;98.57;;;48.50;;
18378;SDS011;27025;51.986;5.984;2023-05-10T03:19:55;104.73;;;49.33;;
18378;SDS011;27025;51.986;5.984;2023-05-10T03:22:26;100.33;;;49.43;;
18378;SDS011;27025;51.986;5.984;2023-05-10T03:24:55;104.57;;;50.83;;
18378;SDS011;27025;51.986;5.984;2023-05-10T03:27:23;103.07;;;51.20;;
18378;SDS011;27025;51.986;5.984;2023-05-10T03:29:49;106.63;;;52.97;;
18378;SDS011;27025;51.986;5.984;2023-05-10T03:32:16;101.47;;;52.40;;
18378;SDS011;27025;51.986;5.984;2023-05-10T03:34:42;100.47;;;51.70;;
18378;SDS011;27025;51.986;5.984;2023-05-10T03:37:15;99.67;;;52.10;;
18378;SDS011;27025;51.986;5.984;2023-05-10T03:39:41;97.90;;;51.47;;
18378;SDS011;27025;51.986;5.984;2023-05-10T03:42:07;101.50;;;53.63;;
18378;SDS011;27025;51.986;5.984;2023-05-10T03:44:33;90.00;;;48.63;;
18378;SDS011;27025;51.986;5.984;2023-05-10T03:46:59;90.33;;;49.33;;
18378;SDS011;27025;51.986;5.984;2023-05-10T03:49:25;95.20;;;50.03;;
18378;SDS011;27025;51.986;5.984;2023-05-10T03:51:51;93.10;;;50.93;;
18378;SDS011;27025;51.986;5.984;2023-05-10T03:54:17;99.37;;;50.30;;
18378;SDS011;27025;51.986;5.984;2023-05-10T03:56:43;96.30;;;51.57;;
18378;SDS011;27025;51.986;5.984;2023-05-10T03:59:09;92.17;;;50.23;;
18378;SDS011;27025;51.986;5.984;2023-05-10T04:01:35;89.53;;;49.40;;
18378;SDS011;27025;51.986;5.984;2023-05-10T04:04:01;93.07;;;50.40;;
18378;SDS011;27025;51.986;5.984;2023-05-10T04:06:27;96.97;;;52.33;;
18378;SDS011;27025;51.986;5.984;2023-05-10T04:08:53;91.43;;;51.87;;
18378;SDS011;27025;51.986;5.984;2023-05-10T04:11:20;110.93;;;54.87;;
18378;SDS011;27025;51.986;5.984;2023-05-10T04:13:46;101.47;;;53.40;;
18378;SDS011;27025;51.986;5.984;2023-05-10T04:16:13;101.37;;;54.17;;
18378;SDS011;27025;51.986;5.984;2023-05-10T04:18:39;91.17;;;52.60;;
18378;SDS011;27025;51.986;5.984;2023-05-10T04:21:10;94.80;;;52.63;;
18378;SDS011;27025;51.986;5.984;2023-05-10T04:23:37;97.30;;;51.97;;
18378;SDS011;27025;51.986;5.984;2023-05-10T04:26:03;93.17;;;51.53;;
18378;SDS011;27025;51.986;5.984;2023-05-10T04:28:29;92.87;;;51.83;;
18378;SDS011;27025;51.986;5.984;2023-05-10T04:31:02;95.67;;;50.90;;
18378;SDS011;27025;51.986;5.984;2023-05-10T04:33:29;84.50;;;49.47;;
18378;SDS011;27025;51.986;5.984;2023-05-10T04:35:55;88.03;;;48.33;;
18378;SDS011;27025;51.986;5.984;2023-05-10T04:38:21;82.43;;;46.73;;
18378;SDS011;27025;51.986;5.984;2023-05-10T04:40:47;76.60;;;45.33;;
18378;SDS011;27025;51.986;5.984;2023-05-10T04:43:13;82.63;;;45.40;;
18378;SDS011;27025;51.986;5.984;2023-05-10T04:45:39;72.43;;;44.47;;
18378;SDS011;27025;51.986;5.984;2023-05-10T04:48:05;74.73;;;43.00;;
18378;SDS011;27025;51.986;5.984;2023-05-10T04:50:32;73.37;;;42.23;;
18378;SDS011;27025;51.986;5.984;2023-05-10T04:52:58;73.40;;;44.10;;
18378;SDS011;27025;51.986;5.984;2023-05-10T04:55:24;72.53;;;43.37;;
18378;SDS011;27025;51.986;5.984;2023-05-10T04:57:51;81.17;;;44.07;;
18378;SDS011;27025;51.986;5.984;2023-05-10T05:00:17;75.97;;;44.63;;
18378;SDS011;27025;51.986;5.984;2023-05-10T05:02:44;87.23;;;46.00;;
18378;SDS011;27025;51.986;5.984;2023-05-10T05:05:10;81.20;;;44.77;;
18378;SDS011;27025;51.986;5.984;2023-05-10T05:07:36;76.00;;;45.27;;
18378;SDS011;27025;51.986;5.984;2023-05-10T05:10:03;81.60;;;44.33;;
18378;SDS011;27025;51.986;5.984;2023-05-10T05:12:30;87.43;;;46.20;;
18378;SDS011;27025;51.986;5.984;2023-05-10T05:14:56;83.47;;;44.90;;
18378;SDS011;27025;51.986;5.984;2023-05-10T05:17:22;77.20;;;42.50;;
18378;SDS011;27025;51.986;5.984;2023-05-10T05:19:48;83.50;;;43.43;;
18378;SDS011;27025;51.986;5.984;2023-05-10T05:22:14;81.40;;;44.10;;
18378;SDS011;27025;51.986;5.984;2023-05-10T05:24:40;84.13;;;44.53;;
18378;SDS011;27025;51.986;5.984;2023-05-10T05:27:06;81.63;;;44.67;;
18378;SDS011;27025;51.986;5.984;2023-05-10T05:29:32;81.97;;;44.33;;
18378;SDS011;27025;51.986;5.984;2023-05-10T05:31:58;82.33;;;43.13;;
18378;SDS011;27025;51.986;5.984;2023-05-10T05:34:24;74.97;;;42.57;;
18378;SDS011;27025;51.986;5.984;2023-05-10T05:36:51;75.10;;;41.43;;
18378;SDS011;27025;51.986;5.984;2023-05-10T05:39:17;75.03;;;43.07;;
18378;SDS011;27025;51.986;5.984;2023-05-10T05:41:43;75.60;;;43.10;;
18378;SDS011;27025;51.986;5.984;2023-05-10T05:44:09;75.43;;;41.47;;
18378;SDS011;27025;51.986;5.984;2023-05-10T05:46:35;73.80;;;41.60;;
18378;SDS011;27025;51.986;5.984;2023-05-10T05:49:01;73.17;;;40.70;;
18378;SDS011;27025;51.986;5.984;2023-05-10T05:51:27;71.57;;;41.00;;
18378;SDS011;27025;51.986;5.984;2023-05-10T05:53:53;68.13;;;41.23;;
18378;SDS011;27025;51.986;5.984;2023-05-10T05:56:19;72.53;;;41.03;;
18378;SDS011;27025;51.986;5.984;2023-05-10T05:58:49;71.80;;;39.73;;
18378;SDS011;27025;51.986;5.984;2023-05-10T06:01:15;68.77;;;40.53;;
18378;SDS011;27025;51.986;5.984;2023-05-10T06:03:41;65.00;;;40.30;;
18378;SDS011;27025;51.986;5.984;2023-05-10T06:06:07;71.53;;;40.93;;
18378;SDS011;27025;51.986;5.984;2023-05-10T06:08:33;65.43;;;39.17;;
18378;SDS011;27025;51.986;5.984;2023-05-10T06:11:00;63.73;;;38.63;;
18378;SDS011;27025;51.986;5.984;2023-05-10T06:13:26;74.90;;;41.20;;
18378;SDS011;27025;51.986;5.984;2023-05-10T06:16:00;66.70;;;40.47;;
18378;SDS011;27025;51.986;5.984;2023-05-10T06:18:26;69.37;;;41.20;;
18378;SDS011;27025;51.986;5.984;2023-05-10T06:20:52;69.07;;;39.30;;
18378;SDS011;27025;51.986;5.984;2023-05-10T06:23:18;75.43;;;41.53;;
18378;SDS011;27025;51.986;5.984;2023-05-10T06:25:44;77.67;;;41.43;;
18378;SDS011;27025;51.986;5.984;2023-05-10T06:28:10;74.07;;;41.10;;
18378;SDS011;27025;51.986;5.984;2023-05-10T06:30:36;77.57;;;40.77;;
18378;SDS011;27025;51.986;5.984;2023-05-10T06:33:03;76.93;;;42.47;;
18378;SDS011;27025;51.986;5.984;2023-05-10T06:35:29;73.73;;;41.07;;
18378;SDS011;27025;51.986;5.984;2023-05-10T06:37:56;75.10;;;41.70;;
18378;SDS011;27025;51.986;5.984;2023-05-10T06:40:22;81.63;;;42.90;;
18378;SDS011;27025;51.986;5.984;2023-05-10T06:42:48;85.67;;;44.10;;
18378;SDS011;27025;51.986;5.984;2023-05-10T06:45:14;81.40;;;42.70;;
18378;SDS011;27025;51.986;5.984;2023-05-10T06:47:41;68.10;;;40.97;;
18378;SDS011;27025;51.986;5.984;2023-05-10T06:50:07;74.23;;;42.13;;
18378;SDS011;27025;51.986;5.984;2023-05-10T06:52:34;74.97;;;42.17;;
18378;SDS011;27025;51.986;5.984;2023-05-10T06:55:00;76.97;;;42.20;;
18378;SDS011;27025;51.986;5.984;2023-05-10T06:57:26;75.67;;;42.07;;
18378;SDS011;27025;51.986;5.984;2023-05-10T06:59:52;76.73;;;40.40;;
18378;SDS011;27025;51.986;5.984;2023-05-10T07:02:20;68.40;;;40.13;;
18378;SDS011;27025;51.986;5.984;2023-05-10T07:04:46;68.10;;;40.20;;
18378;SDS011;27025;51.986;5.984;2023-05-10T07:07:13;70.80;;;40.30;;
18378;SDS011;27025;51.986;5.984;2023-05-10T07:09:39;77.73;;;41.17;;
18378;SDS011;27025;51.986;5.984;2023-05-10T07:12:05;68.90;;;40.40;;
18378;SDS011;27025;51.986;5.984;2023-05-10T07:14:31;70.30;;;40.47;;
18378;SDS011;27025;51.986;5.984;2023-05-10T07:16:57;70.47;;;40.97;;
18378;SDS011;27025;51.986;5.984;2023-05-10T07:19:23;70.70;;;41.87;;
18378;SDS011;27025;51.986;5.984;2023-05-10T07:21:49;70.97;;;41.80;;
18378;SDS011;27025;51.986;5.984;2023-05-10T07:24:16;73.23;;;43.20;;
18378;SDS011;27025;51.986;5.984;2023-05-10T07:26:42;75.37;;;42.67;;
18378;SDS011;27025;51.986;5.984;2023-05-10T07:29:08;65.37;;;42.30;;
18378;SDS011;27025;51.986;5.984;2023-05-10T07:31:34;68.60;;;43.83;;
18378;SDS011;27025;51.986;5.984;2023-05-10T07:34:01;67.20;;;42.77;;
18378;SDS011;27025;51.986;5.984;2023-05-10T07:36:27;69.57;;;43.33;;
18378;SDS011;27025;51.986;5.984;2023-05-10T07:38:53;68.17;;;43.07;;
18378;SDS011;27025;51.986;5.984;2023-05-10T07:41:19;68.87;;;43.70;;
18378;SDS011;27025;51.986;5.984;2023-05-10T07:43:46;68.70;;;43.47;;
18378;SDS011;27025;51.986;5.984;2023-05-10T07:46:12;77.23;;;45.37;;
18378;SDS011;27025;51.986;5.984;2023-05-10T07:48:38;74.00;;;45.03;;
18378;SDS011;27025;51.986;5.984;2023-05-10T07:51:04;72.43;;;43.20;;
18378;SDS011;27025;51.986;5.984;2023-05-10T07:53:32;67.80;;;40.50;;
18378;SDS011;27025;51.986;5.984;2023-05-10T07:55:58;73.20;;;43.30;;
18378;SDS011;27025;51.986;5.984;2023-05-10T07:58:24;69.53;;;42.93;;
18378;SDS011;27025;51.986;5.984;2023-05-10T08:00:50;66.83;;;42.33;;
18378;SDS011;27025;51.986;5.984;2023-05-10T08:03:17;66.83;;;40.90;;
18378;SDS011;27025;51.986;5.984;2023-05-10T08:05:43;61.23;;;40.03;;
18378;SDS011;27025;51.986;5.984;2023-05-10T08:08:09;59.70;;;37.57;;
18378;SDS011;27025;51.986;5.984;2023-05-10T08:10:35;54.43;;;35.93;;
18378;SDS011;27025;51.986;5.984;2023-05-10T08:13:01;53.50;;;35.50;;
18378;SDS011;27025;51.986;5.984;2023-05-10T08:15:27;51.57;;;34.20;;
18378;SDS011;27025;51.986;5.984;2023-05-10T08:17:53;50.47;;;33.23;;
18378;SDS011;27025;51.986;5.984;2023-05-10T08:20:19;51.80;;;34.53;;
18378;SDS011;27025;51.986;5.984;2023-05-10T08:22:45;49.43;;;33.73;;
18378;SDS011;27025;51.986;5.984;2023-05-10T08:25:11;47.50;;;33.60;;
18378;SDS011;27025;51.986;5.984;2023-05-10T08:27:37;49.77;;;33.77;;
18378;SDS011;27025;51.986;5.984;2023-05-10T08:30:04;45.37;;;30.87;;
18378;SDS011;27025;51.986;5.984;2023-05-10T09:09:12;37.40;;;27.13;;
18378;SDS011;27025;51.986;5.984;2023-05-10T09:11:38;40.60;;;26.53;;
18378;SDS011;27025;51.986;5.984;2023-05-10T09:14:05;34.77;;;24.97;;
18378;SDS011;27025;51.986;5.984;2023-05-10T09:16:31;36.03;;;25.40;;
18378;SDS011;27025;51.986;5.984;2023-05-10T09:18:57;31.73;;;24.50;;
18378;SDS011;27025;51.986;5.984;2023-05-10T09:21:23;27.63;;;20.87;;
18378;SDS011;27025;51.986;5.984;2023-05-10T09:23:50;26.13;;;19.57;;
18378;SDS011;27025;51.986;5.984;2023-05-10T09:26:22;25.23;;;19.13;;
18378;SDS011;27025;51.986;5.984;2023-05-10T09:31:17;24.10;;;18.83;;
18378;SDS011;27025;51.986;5.984;2023-05-10T09:33:46;24.40;;;19.03;;
18378;SDS011;27025;51.986;5.984;2023-05-10T09:36:12;21.90;;;17.10;;
18378;SDS011;27025;51.986;5.984;2023-05-10T09:38:48;19.73;;;15.47;;
18378;SDS011;27025;51.986;5.984;2023-05-10T09:41:25;17.30;;;13.87;;
18378;SDS011;27025;51.986;5.984;2023-05-10T09:43:55;16.17;;;12.77;;
18378;SDS011;27025;51.986;5.984;2023-05-10T09:46:21;16.07;;;12.93;;
18378;SDS011;27025;51.986;5.984;2023-05-10T09:48:51;15.63;;;13.57;;
18378;SDS011;27025;51.986;5.984;2023-05-10T09:53:46;12.57;;;11.03;;
18378;SDS011;27025;51.986;5.984;2023-05-10T09:56:12;12.32;;;11.00;;
18378;SDS011;27025;51.986;5.984;2023-05-10T09:58:39;13.20;;;11.80;;
18378;SDS011;27025;51.986;5.984;2023-05-10T10:01:09;12.88;;;11.48;;
18378;SDS011;27025;51.986;5.984;2023-05-10T10:03:40;11.07;;;9.95;;
18378;SDS011;27025;51.986;5.984;2023-05-10T10:06:07;12.25;;;11.05;;
18378;SDS011;27025;51.986;5.984;2023-05-10T10:08:33;13.18;;;11.75;;
18378;SDS011;27025;51.986;5.984;2023-05-10T10:11:03;13.85;;;12.18;;
18378;SDS011;27025;51.986;5.984;2023-05-10T10:13:29;13.20;;;11.90;;
18378;SDS011;27025;51.986;5.984;2023-05-10T10:15:56;12.97;;;11.47;;
18378;SDS011;27025;51.986;5.984;2023-05-10T10:18:23;13.50;;;11.93;;
18378;SDS011;27025;51.986;5.984;2023-05-10T10:20:52;13.65;;;11.90;;
18378;SDS011;27025;51.986;5.984;2023-05-10T10:23:19;13.43;;;11.65;;
18378;SDS011;27025;51.986;5.984;2023-05-10T10:25:45;13.30;;;11.82;;
18378;SDS011;27025;51.986;5.984;2023-05-10T10:30:49;12.20;;;10.90;;
18378;SDS011;27025;51.986;5.984;2023-05-10T10:36:01;14.48;;;12.05;;
18378;SDS011;27025;51.986;5.984;2023-05-10T10:41:32;13.88;;;12.48;;
18378;SDS011;27025;51.986;5.984;2023-05-10T10:49:31;14.73;;;11.80;;
18378;SDS011;27025;51.986;5.984;2023-05-10T10:52:32;13.82;;;12.32;;
18378;SDS011;27025;51.986;5.984;2023-05-10T10:54:58;14.30;;;12.70;;
18378;SDS011;27025;51.986;5.984;2023-05-10T10:57:26;14.47;;;12.97;;
18378;SDS011;27025;51.986;5.984;2023-05-10T11:05:23;14.13;;;12.23;;
18378;SDS011;27025;51.986;5.984;2023-05-10T11:07:53;13.63;;;11.93;;
18378;SDS011;27025;51.986;5.984;2023-05-10T11:10:22;14.65;;;13.15;;
18378;SDS011;27025;51.986;5.984;2023-05-10T11:13:01;13.88;;;12.48;;
18378;SDS011;27025;51.986;5.984;2023-05-10T11:15:28;14.40;;;12.90;;
18378;SDS011;27025;51.986;5.984;2023-05-10T11:17:55;14.50;;;12.90;;
18378;SDS011;27025;51.986;5.984;2023-05-10T11:20:21;16.38;;;13.50;;
18378;SDS011;27025;51.986;5.984;2023-05-10T11:22:53;14.55;;;13.05;;
18378;SDS011;27025;51.986;5.984;2023-05-10T11:25:19;15.38;;;12.90;;
18378;SDS011;27025;51.986;5.984;2023-05-10T11:27:49;16.50;;;13.10;;
18378;SDS011;27025;51.986;5.984;2023-05-10T11:30:15;14.75;;;12.30;;
18378;SDS011;27025;51.986;5.984;2023-05-10T11:32:41;13.43;;;12.13;;
18378;SDS011;27025;51.986;5.984;2023-05-10T11:35:10;13.83;;;12.43;;
18378;SDS011;27025;51.986;5.984;2023-05-10T11:37:38;12.88;;;11.68;;
18378;SDS011;27025;51.986;5.984;2023-05-10T11:40:08;12.40;;;10.65;;
18378;SDS011;27025;51.986;5.984;2023-05-10T11:42:37;11.85;;;10.70;;
18378;SDS011;27025;51.986;5.984;2023-05-10T11:45:04;13.25;;;11.32;;
18378;SDS011;27025;51.986;5.984;2023-05-10T11:47:30;11.63;;;10.43;;
18378;SDS011;27025;51.986;5.984;2023-05-10T11:49:56;10.95;;;9.50;;
18378;SDS011;27025;51.986;5.984;2023-05-10T11:52:22;10.70;;;9.60;;
18378;SDS011;27025;51.986;5.984;2023-05-10T11:54:55;10.68;;;9.23;;
18378;SDS011;27025;51.986;5.984;2023-05-10T11:57:25;10.83;;;9.73;;
18378;SDS011;27025;51.986;5.984;2023-05-10T11:59:54;11.15;;;10.05;;
18378;SDS011;27025;51.986;5.984;2023-05-10T12:02:22;11.13;;;10.02;;
18378;SDS011;27025;51.986;5.984;2023-05-10T12:04:48;11.07;;;9.77;;
18378;SDS011;27025;51.986;5.984;2023-05-10T12:07:14;10.52;;;9.43;;
18378;SDS011;27025;51.986;5.984;2023-05-10T12:09:44;11.75;;;9.80;;
18378;SDS011;27025;51.986;5.984;2023-05-10T12:12:10;11.55;;;10.35;;
18378;SDS011;27025;51.986;5.984;2023-05-10T12:14:36;12.02;;;10.18;;
18378;SDS011;27025;51.986;5.984;2023-05-10T12:17:02;12.23;;;11.02;;
18378;SDS011;27025;51.986;5.984;2023-05-10T12:19:29;11.80;;;10.43;;
18378;SDS011;27025;51.986;5.984;2023-05-10T12:22:04;11.35;;;9.95;;
18378;SDS011;27025;51.986;5.984;2023-05-10T12:24:30;10.83;;;9.73;;
18378;SDS011;27025;51.986;5.984;2023-05-10T12:26:56;11.00;;;9.73;;
18378;SDS011;27025;51.986;5.984;2023-05-10T12:29:22;10.80;;;9.65;;
18378;SDS011;27025;51.986;5.984;2023-05-10T12:31:52;12.38;;;9.55;;
18378;SDS011;27025;51.986;5.984;2023-05-10T12:34:25;10.80;;;9.40;;
18378;SDS011;27025;51.986;5.984;2023-05-10T12:36:54;9.60;;;8.60;;
18378;SDS011;27025;51.986;5.984;2023-05-10T12:39:20;9.47;;;8.37;;
18378;SDS011;27025;51.986;5.984;2023-05-10T12:41:47;8.70;;;7.60;;
18378;SDS011;27025;51.986;5.984;2023-05-10T12:44:13;8.98;;;8.07;;
18378;SDS011;27025;51.986;5.984;2023-05-10T12:46:39;9.00;;;8.10;;
18378;SDS011;27025;51.986;5.984;2023-05-10T12:49:05;8.10;;;7.30;;
18378;SDS011;27025;51.986;5.984;2023-05-10T12:51:31;9.02;;;8.07;;
18378;SDS011;27025;51.986;5.984;2023-05-10T12:53:57;9.07;;;7.63;;
18378;SDS011;27025;51.986;5.984;2023-05-10T12:56:23;8.13;;;7.33;;
18378;SDS011;27025;51.986;5.984;2023-05-10T12:58:49;7.75;;;6.97;;
18378;SDS011;27025;51.986;5.984;2023-05-10T13:01:15;7.93;;;7.07;;
18378;SDS011;27025;51.986;5.984;2023-05-10T13:03:42;8.10;;;7.22;;
18378;SDS011;27025;51.986;5.984;2023-05-10T13:06:10;7.70;;;6.90;;
18378;SDS011;27025;51.986;5.984;2023-05-10T13:08:38;7.55;;;6.85;;
18378;SDS011;27025;51.986;5.984;2023-05-10T13:11:05;8.10;;;7.30;;
18378;SDS011;27025;51.986;5.984;2023-05-10T13:13:31;8.45;;;7.05;;
18378;SDS011;27025;51.986;5.984;2023-05-10T13:15:57;8.20;;;7.30;;
18378;SDS011;27025;51.986;5.984;2023-05-10T13:18:23;8.70;;;7.80;;
18378;SDS011;27025;51.986;5.984;2023-05-10T13:20:51;10.02;;;8.02;;
18378;SDS011;27025;51.986;5.984;2023-05-10T13:23:17;10.00;;;8.00;;
18378;SDS011;27025;51.986;5.984;2023-05-10T13:25:43;9.30;;;8.40;;
18378;SDS011;27025;51.986;5.984;2023-05-10T13:28:09;10.95;;;7.60;;
18378;SDS011;27025;51.986;5.984;2023-05-10T13:30:35;9.68;;;7.63;;
18378;SDS011;27025;51.986;5.984;2023-05-10T13:33:01;9.70;;;7.75;;
18378;SDS011;27025;51.986;5.984;2023-05-10T13:35:27;10.35;;;8.00;;
18378;SDS011;27025;51.986;5.984;2023-05-10T13:37:53;10.05;;;7.93;;
18378;SDS011;27025;51.986;5.984;2023-05-10T13:40:22;9.80;;;8.45;;
18378;SDS011;27025;51.986;5.984;2023-05-10T13:42:48;9.10;;;8.20;;
18378;SDS011;27025;51.986;5.984;2023-05-10T13:45:14;9.10;;;8.20;;
18378;SDS011;27025;51.986;5.984;2023-05-10T13:47:40;8.80;;;7.90;;
18378;SDS011;27025;51.986;5.984;2023-05-10T13:50:07;8.45;;;7.65;;
18378;SDS011;27025;51.986;5.984;2023-05-10T13:52:33;8.40;;;7.47;;
18378;SDS011;27025;51.986;5.984;2023-05-10T13:54:59;8.60;;;7.70;;
18378;SDS011;27025;51.986;5.984;2023-05-10T13:57:25;8.63;;;7.18;;
18378;SDS011;27025;51.986;5.984;2023-05-10T13:59:51;8.43;;;7.22;;
18378;SDS011;27025;51.986;5.984;2023-05-10T14:02:18;8.10;;;7.30;;
18378;SDS011;27025;51.986;5.984;2023-05-10T14:04:44;9.10;;;8.20;;
18378;SDS011;27025;51.986;5.984;2023-05-10T14:07:10;9.50;;;8.52;;
18378;SDS011;27025;51.986;5.984;2023-05-10T14:09:36;11.35;;;10.25;;
18378;SDS011;27025;51.986;5.984;2023-05-10T14:12:02;11.30;;;10.20;;
18378;SDS011;27025;51.986;5.984;2023-05-10T14:14:28;10.87;;;9.87;;
18378;SDS011;27025;51.986;5.984;2023-05-10T14:16:54;11.13;;;10.13;;
18378;SDS011;27025;51.986;5.984;2023-05-10T14:19:20;12.10;;;11.00;;
18378;SDS011;27025;51.986;5.984;2023-05-10T14:21:47;12.17;;;11.07;;
18378;SDS011;27025;51.986;5.984;2023-05-10T14:24:13;12.57;;;11.45;;
18378;SDS011;27025;51.986;5.984;2023-05-10T14:26:39;13.38;;;12.10;;
18378;SDS011;27025;51.986;5.984;2023-05-10T14:29:05;13.05;;;11.88;;
18378;SDS011;27025;51.986;5.984;2023-05-10T14:31:31;13.32;;;12.10;;
18378;SDS011;27025;51.986;5.984;2023-05-10T14:33:57;12.93;;;11.80;;
18378;SDS011;27025;51.986;5.984;2023-05-10T14:36:24;14.30;;;12.90;;
18378;SDS011;27025;51.986;5.984;2023-05-10T14:38:50;13.30;;;12.15;;
18378;SDS011;27025;51.986;5.984;2023-05-10T14:41:17;13.38;;;12.18;;
18378;SDS011;27025;51.986;5.984;2023-05-10T14:43:43;12.82;;;11.73;;
18378;SDS011;27025;51.986;5.984;2023-05-10T14:46:09;13.57;;;12.30;;
18378;SDS011;27025;51.986;5.984;2023-05-10T14:48:35;13.10;;;11.90;;
18378;SDS011;27025;51.986;5.984;2023-05-10T14:51:01;12.10;;;11.00;;
18378;SDS011;27025;51.986;5.984;2023-05-10T14:53:28;11.03;;;10.10;;
18378;SDS011;27025;51.986;5.984;2023-05-10T14:55:54;10.38;;;9.48;;
18378;SDS011;27025;51.986;5.984;2023-05-10T14:58:20;9.75;;;8.85;;
18378;SDS011;27025;51.986;5.984;2023-05-10T15:00:46;9.00;;;8.20;;
18378;SDS011;27025;51.986;5.984;2023-05-10T15:03:12;8.60;;;7.88;;
18378;SDS011;27025;51.986;5.984;2023-05-10T15:05:38;9.10;;;8.30;;
18378;SDS011;27025;51.986;5.984;2023-05-10T15:08:05;8.38;;;7.68;;
18378;SDS011;27025;51.986;5.984;2023-05-10T15:10:31;7.70;;;7.10;;
18378;SDS011;27025;51.986;5.984;2023-05-10T15:12:57;6.70;;;6.05;;
18378;SDS011;27025;51.986;5.984;2023-05-10T15:15:24;6.00;;;5.40;;
18378;SDS011;27025;51.986;5.984;2023-05-10T15:17:50;6.47;;;5.88;;
18378;SDS011;27025;51.986;5.984;2023-05-10T15:20:16;5.63;;;5.13;;
18378;SDS011;27025;51.986;5.984;2023-05-10T15:22:42;5.70;;;5.20;;
18378;SDS011;27025;51.986;5.984;2023-05-10T15:25:08;5.50;;;5.00;;
18378;SDS011;27025;51.986;5.984;2023-05-10T15:27:35;5.25;;;4.82;;
18378;SDS011;27025;51.986;5.984;2023-05-10T15:30:01;3.67;;;3.37;;
18378;SDS011;27025;51.986;5.984;2023-05-10T15:32:27;4.93;;;4.18;;
18378;SDS011;27025;51.986;5.984;2023-05-10T15:34:54;4.00;;;3.60;;
18378;SDS011;27025;51.986;5.984;2023-05-10T15:37:21;3.70;;;3.40;;
18378;SDS011;27025;51.986;5.984;2023-05-10T15:39:48;3.60;;;3.30;;
18378;SDS011;27025;51.986;5.984;2023-05-10T15:42:14;4.05;;;3.47;;